Little Sandy, Kentucky
Current Conditions -  °F | °C
As of 10:10 PM on Thursday 27 Nov 2014 (Local Time) from KSYM Reporting Station
Overcast Overcast  
Wind Chill: 24°   Ceiling: 4200
Heat Index: 30°   Visibility: 10mi
Dew Point: 23°   Wind: 6mph
Humidity: 75%   Direction: 280°W
Pressure: 30.4"   Gusts: NA
Location:  38.1397°N, 83.158°W
Report Text: KSYM 280310Z AUTO 28005KT 10SM OVC042 M01/M05 A3040 RMK AO2
Loading
Personal Weather Stations






























Interactive Weather Map New forecast layout! Learn more

10-Day Weather Forecast

Advertisements
Track Severe Weather on mobile